sensor_id;sensor_type;location;lat;lon;timestamp;temperature;humidity
9987;DHT22;5033;46.310;11.214;2022-08-19T00:01:27;18.60;99.90
9987;DHT22;5033;46.310;11.214;2022-08-19T00:03:55;18.60;99.90
9987;DHT22;5033;46.310;11.214;2022-08-19T00:06:22;18.60;99.90
9987;DHT22;5033;46.310;11.214;2022-08-19T00:08:51;18.60;99.90
9987;DHT22;5033;46.310;11.214;2022-08-19T00:11:18;18.70;99.90
9987;DHT22;5033;46.310;11.214;2022-08-19T00:13:46;18.70;99.90
9987;DHT22;5033;46.310;11.214;2022-08-19T00:16:14;18.70;99.90
9987;DHT22;5033;46.310;11.214;2022-08-19T00:18:41;18.70;99.90
9987;DHT22;5033;46.310;11.214;2022-08-19T00:21:08;18.60;99.90
9987;DHT22;5033;46.310;11.214;2022-08-19T00:23:35;18.70;99.90
9987;DHT22;5033;46.310;11.214;2022-08-19T00:26:05;18.70;99.90
9987;DHT22;5033;46.310;11.214;2022-08-19T00:28:33;18.70;99.90
9987;DHT22;5033;46.310;11.214;2022-08-19T00:31:01;18.70;99.90
9987;DHT22;5033;46.310;11.214;2022-08-19T00:33:28;18.60;99.90
9987;DHT22;5033;46.310;11.214;2022-08-19T00:35:58;18.60;99.90
9987;DHT22;5033;46.310;11.214;2022-08-19T00:38:27;18.50;99.90
9987;DHT22;5033;46.310;11.214;2022-08-19T00:40:54;18.40;99.90
9987;DHT22;5033;46.310;11.214;2022-08-19T00:43:24;18.30;99.90
9987;DHT22;5033;46.310;11.214;2022-08-19T00:45:52;18.30;99.90
9987;DHT22;5033;46.310;11.214;2022-08-19T00:48:20;18.20;99.90
9987;DHT22;5033;46.310;11.214;2022-08-19T00:50:49;18.20;99.90
9987;DHT22;5033;46.310;11.214;2022-08-19T00:53:21;18.30;99.90
9987;DHT22;5033;46.310;11.214;2022-08-19T00:55:51;18.30;99.90
9987;DHT22;5033;46.310;11.214;2022-08-19T00:58:24;18.40;99.90
9987;DHT22;5033;46.310;11.214;2022-08-19T01:00:51;18.40;99.90
9987;DHT22;5033;46.310;11.214;2022-08-19T01:03:20;18.40;99.90
9987;DHT22;5033;46.310;11.214;2022-08-19T01:05:49;18.30;99.90
9987;DHT22;5033;46.310;11.214;2022-08-19T01:08:18;18.30;99.90
9987;DHT22;5033;46.310;11.214;2022-08-19T01:10:48;18.30;99.90
9987;DHT22;5033;46.310;11.214;2022-08-19T01:13:17;18.30;99.90
9987;DHT22;5033;46.310;11.214;2022-08-19T01:15:50;18.20;99.90
9987;DHT22;5033;46.310;11.214;2022-08-19T01:18:19;18.20;99.90
9987;DHT22;5033;46.310;11.214;2022-08-19T01:20:47;18.10;99.90
9987;DHT22;5033;46.310;11.214;2022-08-19T01:23:16;18.00;99.90
9987;DHT22;5033;46.310;11.214;2022-08-19T01:25:46;18.00;99.90
9987;DHT22;5033;46.310;11.214;2022-08-19T01:28:17;17.90;99.90
9987;DHT22;5033;46.310;11.214;2022-08-19T01:30:45;17.90;99.90
9987;DHT22;5033;46.310;11.214;2022-08-19T01:33:13;17.90;99.90
9987;DHT22;5033;46.310;11.214;2022-08-19T01:35:41;17.90;99.90
9987;DHT22;5033;46.310;11.214;2022-08-19T01:38:17;17.90;99.90
9987;DHT22;5033;46.310;11.214;2022-08-19T01:40:46;17.90;99.90
9987;DHT22;5033;46.310;11.214;2022-08-19T01:43:14;17.90;99.90
9987;DHT22;5033;46.310;11.214;2022-08-19T01:45:41;17.90;99.90
9987;DHT22;5033;46.310;11.214;2022-08-19T01:48:08;17.90;99.90
9987;DHT22;5033;46.310;11.214;2022-08-19T01:50:36;18.00;99.90
9987;DHT22;5033;46.310;11.214;2022-08-19T01:53:06;18.00;99.90
9987;DHT22;5033;46.310;11.214;2022-08-19T01:55:35;18.00;99.90
9987;DHT22;5033;46.310;11.214;2022-08-19T01:58:05;18.10;99.90
9987;DHT22;5033;46.310;11.214;2022-08-19T02:00:33;18.10;99.90
9987;DHT22;5033;46.310;11.214;2022-08-19T02:03:00;18.10;99.90
9987;DHT22;5033;46.310;11.214;2022-08-19T02:05:27;18.10;99.90
9987;DHT22;5033;46.310;11.214;2022-08-19T02:07:55;18.20;99.90
9987;DHT22;5033;46.310;11.214;2022-08-19T02:10:23;18.20;99.90
9987;DHT22;5033;46.310;11.214;2022-08-19T02:12:50;18.20;99.90
9987;DHT22;5033;46.310;11.214;2022-08-19T02:15:19;18.20;99.90
9987;DHT22;5033;46.310;11.214;2022-08-19T02:17:47;18.20;99.90
9987;DHT22;5033;46.310;11.214;2022-08-19T02:20:15;18.20;99.90
9987;DHT22;5033;46.310;11.214;2022-08-19T02:22:43;18.10;99.90
9987;DHT22;5033;46.310;11.214;2022-08-19T02:25:10;18.00;99.90
9987;DHT22;5033;46.310;11.214;2022-08-19T02:27:38;18.00;99.90
9987;DHT22;5033;46.310;11.214;2022-08-19T02:30:08;17.90;99.90
9987;DHT22;5033;46.310;11.214;2022-08-19T02:32:36;17.90;99.90
9987;DHT22;5033;46.310;11.214;2022-08-19T02:35:04;17.90;99.90
9987;DHT22;5033;46.310;11.214;2022-08-19T02:37:32;18.00;99.90
9987;DHT22;5033;46.310;11.214;2022-08-19T02:40:16;18.00;99.90
9987;DHT22;5033;46.310;11.214;2022-08-19T02:42:43;18.10;99.90
9987;DHT22;5033;46.310;11.214;2022-08-19T02:45:11;18.10;99.90
9987;DHT22;5033;46.310;11.214;2022-08-19T02:47:40;18.20;99.90
9987;DHT22;5033;46.310;11.214;2022-08-19T02:50:08;18.20;99.90
9987;DHT22;5033;46.310;11.214;2022-08-19T02:52:35;18.20;99.90
9987;DHT22;5033;46.310;11.214;2022-08-19T02:55:03;18.20;99.90
9987;DHT22;5033;46.310;11.214;2022-08-19T02:57:31;18.20;99.90
9987;DHT22;5033;46.310;11.214;2022-08-19T02:59:58;18.20;99.90
9987;DHT22;5033;46.310;11.214;2022-08-19T03:02:27;18.30;99.90
9987;DHT22;5033;46.310;11.214;2022-08-19T03:04:55;18.20;99.90
9987;DHT22;5033;46.310;11.214;2022-08-19T03:07:23;18.20;99.90
9987;DHT22;5033;46.310;11.214;2022-08-19T03:09:50;18.10;99.90
9987;DHT22;5033;46.310;11.214;2022-08-19T03:12:17;18.10;99.90
9987;DHT22;5033;46.310;11.214;2022-08-19T03:14:44;18.00;99.90
9987;DHT22;5033;46.310;11.214;2022-08-19T03:17:12;18.00;99.90
9987;DHT22;5033;46.310;11.214;2022-08-19T03:19:39;17.90;99.90
9987;DHT22;5033;46.310;11.214;2022-08-19T03:22:07;17.90;99.90
9987;DHT22;5033;46.310;11.214;2022-08-19T03:24:35;17.90;99.90
9987;DHT22;5033;46.310;11.214;2022-08-19T03:27:02;17.90;99.90
9987;DHT22;5033;46.310;11.214;2022-08-19T03:29:31;17.90;99.90
9987;DHT22;5033;46.310;11.214;2022-08-19T03:31:59;18.00;99.90
9987;DHT22;5033;46.310;11.214;2022-08-19T03:34:29;18.00;99.90
9987;DHT22;5033;46.310;11.214;2022-08-19T03:37:03;18.00;99.90
9987;DHT22;5033;46.310;11.214;2022-08-19T03:39:32;18.00;99.90
9987;DHT22;5033;46.310;11.214;2022-08-19T03:41:59;18.00;99.90
9987;DHT22;5033;46.310;11.214;2022-08-19T03:44:29;18.00;99.90
9987;DHT22;5033;46.310;11.214;2022-08-19T03:46:58;18.00;99.90
9987;DHT22;5033;46.310;11.214;2022-08-19T03:49:28;18.10;99.90
9987;DHT22;5033;46.310;11.214;2022-08-19T03:51:56;18.00;99.90
9987;DHT22;5033;46.310;11.214;2022-08-19T03:54:24;18.00;99.90
9987;DHT22;5033;46.310;11.214;2022-08-19T03:56:54;18.00;99.90
9987;DHT22;5033;46.310;11.214;2022-08-19T03:59:24;18.10;99.90
9987;DHT22;5033;46.310;11.214;2022-08-19T04:01:52;18.00;99.90
9987;DHT22;5033;46.310;11.214;2022-08-19T04:04:19;18.10;99.90
9987;DHT22;5033;46.310;11.214;2022-08-19T04:06:47;18.10;99.90
9987;DHT22;5033;46.310;11.214;2022-08-19T04:09:15;18.30;99.90
9987;DHT22;5033;46.310;11.214;2022-08-19T04:11:45;18.30;99.90
9987;DHT22;5033;46.310;11.214;2022-08-19T04:14:15;18.40;99.90
9987;DHT22;5033;46.310;11.214;2022-08-19T04:16:43;18.50;99.90
9987;DHT22;5033;46.310;11.214;2022-08-19T04:19:12;18.50;99.90
9987;DHT22;5033;46.310;11.214;2022-08-19T04:21:40;18.50;99.90
9987;DHT22;5033;46.310;11.214;2022-08-19T04:24:09;18.30;99.90
9987;DHT22;5033;46.310;11.214;2022-08-19T04:26:36;18.20;99.90
9987;DHT22;5033;46.310;11.214;2022-08-19T04:29:08;18.20;99.90
9987;DHT22;5033;46.310;11.214;2022-08-19T04:31:36;18.20;99.90
9987;DHT22;5033;46.310;11.214;2022-08-19T04:34:06;18.10;99.90
9987;DHT22;5033;46.310;11.214;2022-08-19T04:36:35;18.10;99.90
9987;DHT22;5033;46.310;11.214;2022-08-19T04:39:05;18.10;99.90
9987;DHT22;5033;46.310;11.214;2022-08-19T04:41:33;18.30;99.90
9987;DHT22;5033;46.310;11.214;2022-08-19T04:44:18;18.40;99.90
9987;DHT22;5033;46.310;11.214;2022-08-19T04:46:49;18.50;99.90
9987;DHT22;5033;46.310;11.214;2022-08-19T04:49:19;18.60;99.90
9987;DHT22;5033;46.310;11.214;2022-08-19T04:51:48;18.60;99.90
9987;DHT22;5033;46.310;11.214;2022-08-19T04:54:16;18.60;99.90
9987;DHT22;5033;46.310;11.214;2022-08-19T04:56:45;18.70;99.90
9987;DHT22;5033;46.310;11.214;2022-08-19T04:59:15;18.70;99.90
9987;DHT22;5033;46.310;11.214;2022-08-19T05:01:43;18.70;99.90
9987;DHT22;5033;46.310;11.214;2022-08-19T05:04:19;18.80;99.90
9987;DHT22;5033;46.310;11.214;2022-08-19T05:06:48;18.80;99.90
9987;DHT22;5033;46.310;11.214;2022-08-19T05:09:16;18.70;99.90
9987;DHT22;5033;46.310;11.214;2022-08-19T05:11:44;18.70;99.90
9987;DHT22;5033;46.310;11.214;2022-08-19T05:14:11;18.70;99.90
9987;DHT22;5033;46.310;11.214;2022-08-19T05:16:40;18.80;99.90
9987;DHT22;5033;46.310;11.214;2022-08-19T05:19:07;18.90;99.90
9987;DHT22;5033;46.310;11.214;2022-08-19T05:21:53;18.90;99.90
9987;DHT22;5033;46.310;11.214;2022-08-19T05:24:38;18.90;99.90
9987;DHT22;5033;46.310;11.214;2022-08-19T05:27:05;18.80;99.90
9987;DHT22;5033;46.310;11.214;2022-08-19T05:29:33;18.80;99.90
9987;DHT22;5033;46.310;11.214;2022-08-19T05:32:02;18.70;99.90
9987;DHT22;5033;46.310;11.214;2022-08-19T05:34:31;18.60;99.90
9987;DHT22;5033;46.310;11.214;2022-08-19T05:37:02;18.50;99.90
9987;DHT22;5033;46.310;11.214;2022-08-19T05:39:32;18.50;99.90
9987;DHT22;5033;46.310;11.214;2022-08-19T05:42:02;18.50;99.90
9987;DHT22;5033;46.310;11.214;2022-08-19T05:44:33;18.80;99.90
9987;DHT22;5033;46.310;11.214;2022-08-19T05:47:04;19.10;99.90
9987;DHT22;5033;46.310;11.214;2022-08-19T05:49:32;19.40;99.90
9987;DHT22;5033;46.310;11.214;2022-08-19T05:52:03;19.40;99.90
9987;DHT22;5033;46.310;11.214;2022-08-19T05:54:31;19.50;99.90
9987;DHT22;5033;46.310;11.214;2022-08-19T05:57:00;19.50;99.90
9987;DHT22;5033;46.310;11.214;2022-08-19T05:59:28;19.70;99.90
9987;DHT22;5033;46.310;11.214;2022-08-19T06:01:55;20.10;99.90
9987;DHT22;5033;46.310;11.214;2022-08-19T06:04:23;20.40;99.90
9987;DHT22;5033;46.310;11.214;2022-08-19T06:06:52;20.50;99.90
9987;DHT22;5033;46.310;11.214;2022-08-19T06:09:22;20.20;99.90
9987;DHT22;5033;46.310;11.214;2022-08-19T06:11:50;20.00;99.90
9987;DHT22;5033;46.310;11.214;2022-08-19T06:14:21;20.00;99.90
9987;DHT22;5033;46.310;11.214;2022-08-19T06:16:49;20.20;99.90
9987;DHT22;5033;46.310;11.214;2022-08-19T06:19:19;20.40;99.90
9987;DHT22;5033;46.310;11.214;2022-08-19T06:21:48;20.80;99.90
9987;DHT22;5033;46.310;11.214;2022-08-19T06:24:17;21.10;99.90
9987;DHT22;5033;46.310;11.214;2022-08-19T06:26:48;21.20;99.90
9987;DHT22;5033;46.310;11.214;2022-08-19T06:29:17;21.60;99.90
9987;DHT22;5033;46.310;11.214;2022-08-19T06:31:47;21.40;99.90
9987;DHT22;5033;46.310;11.214;2022-08-19T06:34:16;21.10;99.90
9987;DHT22;5033;46.310;11.214;2022-08-19T06:36:46;20.80;99.90
9987;DHT22;5033;46.310;11.214;2022-08-19T06:39:16;20.70;99.90
9987;DHT22;5033;46.310;11.214;2022-08-19T06:41:48;20.70;99.90
9987;DHT22;5033;46.310;11.214;2022-08-19T06:44:15;20.80;99.90
9987;DHT22;5033;46.310;11.214;2022-08-19T06:46:43;20.80;99.90
9987;DHT22;5033;46.310;11.214;2022-08-19T06:49:11;20.80;99.90
9987;DHT22;5033;46.310;11.214;2022-08-19T06:51:40;20.70;99.90
9987;DHT22;5033;46.310;11.214;2022-08-19T06:54:08;20.80;99.90
9987;DHT22;5033;46.310;11.214;2022-08-19T06:56:36;20.80;99.90
9987;DHT22;5033;46.310;11.214;2022-08-19T06:59:07;20.90;99.90
9987;DHT22;5033;46.310;11.214;2022-08-19T07:01:36;20.90;99.90
9987;DHT22;5033;46.310;11.214;2022-08-19T07:04:04;21.00;99.90
9987;DHT22;5033;46.310;11.214;2022-08-19T07:06:32;21.10;99.90
9987;DHT22;5033;46.310;11.214;2022-08-19T07:09:00;21.30;99.90
9987;DHT22;5033;46.310;11.214;2022-08-19T07:11:27;21.50;99.90
9987;DHT22;5033;46.310;11.214;2022-08-19T07:13:54;21.60;99.90
9987;DHT22;5033;46.310;11.214;2022-08-19T07:16:23;21.60;99.90
9987;DHT22;5033;46.310;11.214;2022-08-19T07:18:51;21.50;99.90
9987;DHT22;5033;46.310;11.214;2022-08-19T07:21:20;21.40;99.90
9987;DHT22;5033;46.310;11.214;2022-08-19T07:23:48;21.10;99.90
9987;DHT22;5033;46.310;11.214;2022-08-19T07:26:17;20.90;99.90
9987;DHT22;5033;46.310;11.214;2022-08-19T07:28:46;21.00;99.90
9987;DHT22;5033;46.310;11.214;2022-08-19T07:31:16;21.40;99.90
9987;DHT22;5033;46.310;11.214;2022-08-19T07:33:46;22.30;99.90
9987;DHT22;5033;46.310;11.214;2022-08-19T07:36:16;23.00;99.90
9987;DHT22;5033;46.310;11.214;2022-08-19T07:38:47;23.20;99.90
9987;DHT22;5033;46.310;11.214;2022-08-19T07:41:18;23.00;99.90
9987;DHT22;5033;46.310;11.214;2022-08-19T07:43:46;22.60;99.90
9987;DHT22;5033;46.310;11.214;2022-08-19T07:46:13;22.40;99.90
9987;DHT22;5033;46.310;11.214;2022-08-19T07:48:42;22.20;99.90
9987;DHT22;5033;46.310;11.214;2022-08-19T07:51:15;22.10;99.90
9987;DHT22;5033;46.310;11.214;2022-08-19T07:53:43;22.10;99.90
9987;DHT22;5033;46.310;11.214;2022-08-19T07:56:12;22.40;99.90
9987;DHT22;5033;46.310;11.214;2022-08-19T07:58:42;22.80;99.90
9987;DHT22;5033;46.310;11.214;2022-08-19T08:01:12;23.20;99.90
9987;DHT22;5033;46.310;11.214;2022-08-19T08:03:41;23.40;99.90
9987;DHT22;5033;46.310;11.214;2022-08-19T08:06:27;23.40;99.90
9987;DHT22;5033;46.310;11.214;2022-08-19T08:09:14;23.40;99.90
9987;DHT22;5033;46.310;11.214;2022-08-19T08:11:50;23.20;99.90
9987;DHT22;5033;46.310;11.214;2022-08-19T08:14:19;23.00;99.90
9987;DHT22;5033;46.310;11.214;2022-08-19T08:16:48;22.70;99.90
9987;DHT22;5033;46.310;11.214;2022-08-19T08:19:18;22.60;99.90
9987;DHT22;5033;46.310;11.214;2022-08-19T08:21:47;22.40;99.90
9987;DHT22;5033;46.310;11.214;2022-08-19T08:24:15;22.30;99.90
9987;DHT22;5033;46.310;11.214;2022-08-19T08:26:43;22.30;99.90
9987;DHT22;5033;46.310;11.214;2022-08-19T08:29:10;22.30;99.90
9987;DHT22;5033;46.310;11.214;2022-08-19T08:31:39;22.30;99.90
9987;DHT22;5033;46.310;11.214;2022-08-19T08:34:06;22.30;99.90
9987;DHT22;5033;46.310;11.214;2022-08-19T08:36:36;22.30;99.90
9987;DHT22;5033;46.310;11.214;2022-08-19T08:39:08;22.30;99.90
9987;DHT22;5033;46.310;11.214;2022-08-19T08:41:42;22.20;99.90
9987;DHT22;5033;46.310;11.214;2022-08-19T08:44:16;22.20;99.90
9987;DHT22;5033;46.310;11.214;2022-08-19T08:46:48;22.30;99.90
9987;DHT22;5033;46.310;11.214;2022-08-19T08:49:24;22.40;99.90
9987;DHT22;5033;46.310;11.214;2022-08-19T08:51:59;22.60;99.90
9987;DHT22;5033;46.310;11.214;2022-08-19T08:54:33;22.70;99.90
9987;DHT22;5033;46.310;11.214;2022-08-19T08:57:04;22.90;99.90
9987;DHT22;5033;46.310;11.214;2022-08-19T08:59:38;23.00;99.90
9987;DHT22;5033;46.310;11.214;2022-08-19T09:02:08;23.20;99.90
9987;DHT22;5033;46.310;11.214;2022-08-19T09:04:36;23.50;99.90
9987;DHT22;5033;46.310;11.214;2022-08-19T09:07:17;23.70;99.90
9987;DHT22;5033;46.310;11.214;2022-08-19T09:09:51;23.80;99.90
9987;DHT22;5033;46.310;11.214;2022-08-19T09:12:23;24.00;99.90
9987;DHT22;5033;46.310;11.214;2022-08-19T09:14:57;24.20;99.90
9987;DHT22;5033;46.310;11.214;2022-08-19T09:17:27;24.30;99.90
9987;DHT22;5033;46.310;11.214;2022-08-19T09:19:59;24.30;99.90
9987;DHT22;5033;46.310;11.214;2022-08-19T09:22:30;24.00;99.90
9987;DHT22;5033;46.310;11.214;2022-08-19T09:24:59;24.00;99.90
9987;DHT22;5033;46.310;11.214;2022-08-19T09:27:27;24.00;99.90
9987;DHT22;5033;46.310;11.214;2022-08-19T09:29:55;24.10;99.90
9987;DHT22;5033;46.310;11.214;2022-08-19T09:32:23;24.20;99.90
9987;DHT22;5033;46.310;11.214;2022-08-19T09:34:52;24.20;99.90
9987;DHT22;5033;46.310;11.214;2022-08-19T09:37:20;24.30;99.90
9987;DHT22;5033;46.310;11.214;2022-08-19T09:39:47;24.20;99.90
9987;DHT22;5033;46.310;11.214;2022-08-19T09:42:15;24.10;99.90
9987;DHT22;5033;46.310;11.214;2022-08-19T09:44:43;24.00;99.90
9987;DHT22;5033;46.310;11.214;2022-08-19T09:47:12;24.00;99.90
9987;DHT22;5033;46.310;11.214;2022-08-19T09:49:40;23.90;99.90
9987;DHT22;5033;46.310;11.214;2022-08-19T09:52:09;23.90;99.90
9987;DHT22;5033;46.310;11.214;2022-08-19T09:54:36;23.90;99.90
9987;DHT22;5033;46.310;11.214;2022-08-19T09:57:04;23.90;99.90
9987;DHT22;5033;46.310;11.214;2022-08-19T09:59:35;23.80;99.90
9987;DHT22;5033;46.310;11.214;2022-08-19T10:02:02;23.70;99.90
9987;DHT22;5033;46.310;11.214;2022-08-19T10:04:29;23.70;99.90
9987;DHT22;5033;46.310;11.214;2022-08-19T10:07:11;23.60;99.90
9987;DHT22;5033;46.310;11.214;2022-08-19T10:09:38;23.50;99.90
9987;DHT22;5033;46.310;11.214;2022-08-19T10:12:07;23.50;99.90
9987;DHT22;5033;46.310;11.214;2022-08-19T10:14:36;23.50;99.90
9987;DHT22;5033;46.310;11.214;2022-08-19T10:17:04;23.60;99.90
9987;DHT22;5033;46.310;11.214;2022-08-19T10:19:31;23.70;99.90
9987;DHT22;5033;46.310;11.214;2022-08-19T10:22:03;23.70;99.90
9987;DHT22;5033;46.310;11.214;2022-08-19T10:24:31;23.70;99.90
9987;DHT22;5033;46.310;11.214;2022-08-19T10:26:59;23.70;99.90
9987;DHT22;5033;46.310;11.214;2022-08-19T10:29:29;23.70;99.90
9987;DHT22;5033;46.310;11.214;2022-08-19T10:31:59;23.80;99.90
9987;DHT22;5033;46.310;11.214;2022-08-19T10:34:26;24.00;99.90
9987;DHT22;5033;46.310;11.214;2022-08-19T10:36:53;24.30;99.90
9987;DHT22;5033;46.310;11.214;2022-08-19T10:39:20;24.60;99.90
9987;DHT22;5033;46.310;11.214;2022-08-19T10:41:48;25.00;99.90
9987;DHT22;5033;46.310;11.214;2022-08-19T10:44:15;25.00;99.90
9987;DHT22;5033;46.310;11.214;2022-08-19T10:46:44;24.80;99.90
9987;DHT22;5033;46.310;11.214;2022-08-19T10:49:14;24.80;99.90
9987;DHT22;5033;46.310;11.214;2022-08-19T10:51:41;24.70;99.90
9987;DHT22;5033;46.310;11.214;2022-08-19T10:54:26;24.70;99.90
9987;DHT22;5033;46.310;11.214;2022-08-19T10:57:14;24.50;99.90
9987;DHT22;5033;46.310;11.214;2022-08-19T10:59:40;24.40;99.90
9987;DHT22;5033;46.310;11.214;2022-08-19T11:02:10;24.30;99.90
9987;DHT22;5033;46.310;11.214;2022-08-19T11:04:39;24.10;99.90
9987;DHT22;5033;46.310;11.214;2022-08-19T11:07:07;24.00;99.90
9987;DHT22;5033;46.310;11.214;2022-08-19T11:09:38;23.70;99.90
9987;DHT22;5033;46.310;11.214;2022-08-19T11:12:06;23.60;99.90
9987;DHT22;5033;46.310;11.214;2022-08-19T11:14:34;23.50;99.90
9987;DHT22;5033;46.310;11.214;2022-08-19T11:17:03;23.50;99.90
9987;DHT22;5033;46.310;11.214;2022-08-19T11:19:31;23.50;99.90
9987;DHT22;5033;46.310;11.214;2022-08-19T11:22:00;23.60;99.90
9987;DHT22;5033;46.310;11.214;2022-08-19T11:24:29;23.70;99.90
9987;DHT22;5033;46.310;11.214;2022-08-19T11:27:01;23.70;99.90
9987;DHT22;5033;46.310;11.214;2022-08-19T11:29:30;23.70;99.90
9987;DHT22;5033;46.310;11.214;2022-08-19T11:31:58;23.80;99.90
9987;DHT22;5033;46.310;11.214;2022-08-19T11:34:27;23.70;99.90
9987;DHT22;5033;46.310;11.214;2022-08-19T11:36:55;23.70;99.90
9987;DHT22;5033;46.310;11.214;2022-08-19T11:39:27;23.70;99.90
9987;DHT22;5033;46.310;11.214;2022-08-19T11:41:55;23.60;99.90
9987;DHT22;5033;46.310;11.214;2022-08-19T11:44:22;23.70;99.90
9987;DHT22;5033;46.310;11.214;2022-08-19T11:46:49;23.60;99.90
9987;DHT22;5033;46.310;11.214;2022-08-19T11:49:19;23.70;99.90
9987;DHT22;5033;46.310;11.214;2022-08-19T11:51:47;23.80;99.90
9987;DHT22;5033;46.310;11.214;2022-08-19T11:54:16;23.80;99.90
9987;DHT22;5033;46.310;11.214;2022-08-19T11:56:45;23.80;99.90
9987;DHT22;5033;46.310;11.214;2022-08-19T11:59:14;23.70;99.90
9987;DHT22;5033;46.310;11.214;2022-08-19T12:01:42;23.70;99.90
9987;DHT22;5033;46.310;11.214;2022-08-19T12:04:09;23.60;99.90
9987;DHT22;5033;46.310;11.214;2022-08-19T12:06:38;23.50;99.90
9987;DHT22;5033;46.310;11.214;2022-08-19T12:09:07;23.50;99.90
9987;DHT22;5033;46.310;11.214;2022-08-19T12:11:35;23.40;99.90
9987;DHT22;5033;46.310;11.214;2022-08-19T12:14:05;23.40;99.90
9987;DHT22;5033;46.310;11.214;2022-08-19T12:16:33;23.40;99.90
9987;DHT22;5033;46.310;11.214;2022-08-19T12:19:00;23.30;99.90
9987;DHT22;5033;46.310;11.214;2022-08-19T12:21:31;23.30;99.90
9987;DHT22;5033;46.310;11.214;2022-08-19T12:23:59;23.30;99.90
9987;DHT22;5033;46.310;11.214;2022-08-19T12:26:28;23.40;99.90
9987;DHT22;5033;46.310;11.214;2022-08-19T12:28:56;23.40;99.90
9987;DHT22;5033;46.310;11.214;2022-08-19T12:31:26;23.60;99.90
9987;DHT22;5033;46.310;11.214;2022-08-19T12:33:54;23.80;99.90
9987;DHT22;5033;46.310;11.214;2022-08-19T12:36:22;24.00;99.90
9987;DHT22;5033;46.310;11.214;2022-08-19T12:38:51;24.10;99.90
9987;DHT22;5033;46.310;11.214;2022-08-19T12:41:19;24.20;99.90
9987;DHT22;5033;46.310;11.214;2022-08-19T12:43:47;24.20;99.90
9987;DHT22;5033;46.310;11.214;2022-08-19T12:46:15;24.30;99.90
9987;DHT22;5033;46.310;11.214;2022-08-19T12:48:44;24.40;99.90
9987;DHT22;5033;46.310;11.214;2022-08-19T12:51:13;24.50;99.90
9987;DHT22;5033;46.310;11.214;2022-08-19T12:53:42;24.50;99.90
9987;DHT22;5033;46.310;11.214;2022-08-19T12:56:10;24.60;99.90
9987;DHT22;5033;46.310;11.214;2022-08-19T12:58:40;24.60;99.90
9987;DHT22;5033;46.310;11.214;2022-08-19T13:01:09;24.50;99.90
9987;DHT22;5033;46.310;11.214;2022-08-19T13:03:37;24.50;99.90
9987;DHT22;5033;46.310;11.214;2022-08-19T13:06:06;24.40;99.90
9987;DHT22;5033;46.310;11.214;2022-08-19T13:08:34;24.40;99.90
9987;DHT22;5033;46.310;11.214;2022-08-19T13:11:09;24.40;99.90
9987;DHT22;5033;46.310;11.214;2022-08-19T13:13:39;24.40;99.90
9987;DHT22;5033;46.310;11.214;2022-08-19T13:16:07;24.50;99.90
9987;DHT22;5033;46.310;11.214;2022-08-19T13:18:35;24.50;99.90
9987;DHT22;5033;46.310;11.214;2022-08-19T13:21:03;24.70;99.90
9987;DHT22;5033;46.310;11.214;2022-08-19T13:23:32;24.70;99.90
9987;DHT22;5033;46.310;11.214;2022-08-19T13:26:01;24.90;99.90
9987;DHT22;5033;46.310;11.214;2022-08-19T13:28:28;25.10;99.90
9987;DHT22;5033;46.310;11.214;2022-08-19T13:31:17;25.40;99.90
9987;DHT22;5033;46.310;11.214;2022-08-19T13:34:02;25.80;99.90
9987;DHT22;5033;46.310;11.214;2022-08-19T13:36:31;26.20;99.90
9987;DHT22;5033;46.310;11.214;2022-08-19T13:38:59;26.30;99.90
9987;DHT22;5033;46.310;11.214;2022-08-19T13:41:26;26.60;99.90
9987;DHT22;5033;46.310;11.214;2022-08-19T13:43:54;26.80;99.90
9987;DHT22;5033;46.310;11.214;2022-08-19T13:46:21;27.00;99.90
9987;DHT22;5033;46.310;11.214;2022-08-19T13:48:48;27.20;99.90
9987;DHT22;5033;46.310;11.214;2022-08-19T13:51:16;27.10;99.90
9987;DHT22;5033;46.310;11.214;2022-08-19T13:53:44;26.60;99.90
9987;DHT22;5033;46.310;11.214;2022-08-19T13:56:14;26.10;99.90
9987;DHT22;5033;46.310;11.214;2022-08-19T13:58:42;25.70;99.90
9987;DHT22;5033;46.310;11.214;2022-08-19T14:01:09;25.60;99.90
9987;DHT22;5033;46.310;11.214;2022-08-19T14:03:37;25.40;99.90
9987;DHT22;5033;46.310;11.214;2022-08-19T14:06:05;25.20;99.90
9987;DHT22;5033;46.310;11.214;2022-08-19T14:08:32;25.30;99.90
9987;DHT22;5033;46.310;11.214;2022-08-19T14:10:59;25.30;99.90
9987;DHT22;5033;46.310;11.214;2022-08-19T14:13:28;25.30;99.90
9987;DHT22;5033;46.310;11.214;2022-08-19T14:15:56;25.40;99.90
9987;DHT22;5033;46.310;11.214;2022-08-19T14:18:23;25.60;99.90
9987;DHT22;5033;46.310;11.214;2022-08-19T14:20:51;25.70;99.90
9987;DHT22;5033;46.310;11.214;2022-08-19T14:23:18;25.80;99.90
9987;DHT22;5033;46.310;11.214;2022-08-19T14:25:45;25.90;99.90
9987;DHT22;5033;46.310;11.214;2022-08-19T14:28:13;26.00;99.90
9987;DHT22;5033;46.310;11.214;2022-08-19T14:30:41;25.90;99.90
9987;DHT22;5033;46.310;11.214;2022-08-19T14:33:11;25.80;99.90
9987;DHT22;5033;46.310;11.214;2022-08-19T14:35:39;25.70;99.90
9987;DHT22;5033;46.310;11.214;2022-08-19T14:38:15;25.70;99.90
9987;DHT22;5033;46.310;11.214;2022-08-19T14:40:43;25.60;99.90
9987;DHT22;5033;46.310;11.214;2022-08-19T14:43:11;25.50;99.90
9987;DHT22;5033;46.310;11.214;2022-08-19T14:45:41;25.40;99.90
9987;DHT22;5033;46.310;11.214;2022-08-19T14:48:08;25.10;99.90
9987;DHT22;5033;46.310;11.214;2022-08-19T14:50:36;24.80;99.90
9987;DHT22;5033;46.310;11.214;2022-08-19T14:53:05;24.50;99.90
9987;DHT22;5033;46.310;11.214;2022-08-19T14:55:33;24.20;99.90
9987;DHT22;5033;46.310;11.214;2022-08-19T14:58:00;24.10;99.90
9987;DHT22;5033;46.310;11.214;2022-08-19T15:00:27;24.00;99.90
9987;DHT22;5033;46.310;11.214;2022-08-19T15:02:56;23.90;99.90
9987;DHT22;5033;46.310;11.214;2022-08-19T15:05:24;23.80;99.90
9987;DHT22;5033;46.310;11.214;2022-08-19T15:07:52;23.80;99.90
9987;DHT22;5033;46.310;11.214;2022-08-19T15:10:23;23.80;99.90
9987;DHT22;5033;46.310;11.214;2022-08-19T15:12:50;23.70;99.90
9987;DHT22;5033;46.310;11.214;2022-08-19T15:15:18;23.80;99.90
9987;DHT22;5033;46.310;11.214;2022-08-19T15:17:47;23.90;99.90
9987;DHT22;5033;46.310;11.214;2022-08-19T15:20:19;24.00;99.90
9987;DHT22;5033;46.310;11.214;2022-08-19T15:22:47;24.10;99.90
9987;DHT22;5033;46.310;11.214;2022-08-19T15:25:16;24.20;99.90
9987;DHT22;5033;46.310;11.214;2022-08-19T15:27:46;24.20;99.90
9987;DHT22;5033;46.310;11.214;2022-08-19T15:30:19;24.20;99.90
9987;DHT22;5033;46.310;11.214;2022-08-19T15:32:47;24.00;99.90
9987;DHT22;5033;46.310;11.214;2022-08-19T15:35:16;23.70;99.90
9987;DHT22;5033;46.310;11.214;2022-08-19T15:37:47;23.60;99.90
9987;DHT22;5033;46.310;11.214;2022-08-19T15:40:14;23.50;99.90
9987;DHT22;5033;46.310;11.214;2022-08-19T15:42:42;23.30;99.90
9987;DHT22;5033;46.310;11.214;2022-08-19T15:45:10;23.20;99.90
9987;DHT22;5033;46.310;11.214;2022-08-19T15:47:38;23.10;99.90
9987;DHT22;5033;46.310;11.214;2022-08-19T15:50:06;23.20;99.90
9987;DHT22;5033;46.310;11.214;2022-08-19T15:52:36;23.40;99.90
9987;DHT22;5033;46.310;11.214;2022-08-19T15:55:04;23.50;99.90
9987;DHT22;5033;46.310;11.214;2022-08-19T15:57:32;23.60;99.90